createdAt,value
2024-05-09T00:02:01.126Z,4.76
2024-05-09T00:04:08.928Z,4.77
2024-05-09T00:06:16.318Z,4.77
2024-05-09T00:08:23.857Z,4.77
2024-05-09T00:10:36.521Z,4.78
2024-05-09T00:12:46.333Z,4.86
2024-05-09T00:14:53.758Z,4.92
2024-05-09T00:17:03.412Z,4.96
2024-05-09T00:19:11.416Z,4.99
2024-05-09T00:21:19.183Z,5.03
2024-05-09T00:23:26.684Z,5.05
2024-05-09T00:25:34.502Z,5.07
2024-05-09T00:27:42.363Z,5.07
2024-05-09T00:29:49.815Z,5.10
2024-05-09T00:31:57.305Z,5.11
2024-05-09T00:34:04.997Z,5.15
2024-05-09T00:36:12.402Z,5.22
2024-05-09T00:38:19.795Z,5.27
2024-05-09T00:40:37.250Z,5.31
2024-05-09T00:42:48.737Z,5.32
2024-05-09T00:44:56.184Z,5.34
2024-05-09T00:47:04.028Z,5.36
2024-05-09T00:49:12.531Z,5.39
2024-05-09T00:51:20.411Z,5.41
2024-05-09T00:53:27.998Z,5.42
2024-05-09T00:55:36.758Z,5.44
2024-05-09T00:57:45.547Z,5.44
2024-05-09T00:59:54.453Z,5.47
2024-05-09T01:02:02.884Z,5.47
2024-05-09T01:04:10.923Z,5.48
2024-05-09T01:06:18.302Z,5.54
2024-05-09T01:08:25.960Z,5.60
2024-05-09T01:10:35.339Z,5.66
2024-05-09T01:12:44.158Z,5.68
2024-05-09T01:14:51.695Z,5.69
2024-05-09T01:16:59.153Z,5.67
2024-05-09T01:19:14.769Z,5.73
2024-05-09T01:21:22.534Z,5.74
2024-05-09T01:23:30.267Z,5.75
2024-05-09T01:25:38.113Z,5.74
2024-05-09T01:27:45.666Z,5.73
2024-05-09T01:29:53.228Z,5.72
2024-05-09T01:32:00.862Z,5.70
2024-05-09T01:34:08.600Z,5.76
2024-05-09T01:36:16.166Z,5.80
2024-05-09T01:38:23.692Z,5.84
2024-05-09T01:40:38.194Z,5.86
2024-05-09T01:42:47.538Z,5.87
2024-05-09T01:44:55.085Z,5.89
2024-05-09T01:47:02.697Z,5.90
2024-05-09T01:49:10.464Z,5.90
2024-05-09T01:51:18.135Z,5.91
2024-05-09T01:53:25.755Z,5.91
2024-05-09T01:55:33.130Z,5.90
2024-05-09T01:57:40.708Z,5.89
2024-05-09T01:59:48.212Z,5.89
2024-05-09T02:01:57.664Z,5.89
2024-05-09T02:04:06.107Z,5.96
2024-05-09T02:06:13.960Z,6.00
2024-05-09T02:08:22.638Z,6.04
2024-05-09T02:10:32.831Z,6.03
2024-05-09T02:12:40.983Z,6.04
2024-05-09T02:14:48.577Z,6.05
2024-05-09T02:16:56.146Z,6.05
2024-05-09T02:19:03.722Z,6.05
2024-05-09T02:21:12.225Z,6.04
2024-05-09T02:23:19.902Z,6.04
2024-05-09T02:25:27.807Z,6.04
2024-05-09T02:27:35.458Z,6.04
2024-05-09T02:29:44.061Z,6.11
2024-05-09T02:31:51.702Z,6.15
2024-05-09T02:33:59.286Z,6.17
2024-05-09T02:36:09.141Z,6.17
2024-05-09T02:38:17.183Z,6.17
2024-05-09T02:40:33.271Z,6.18
2024-05-09T02:42:44.526Z,6.20
2024-05-09T02:44:52.046Z,6.20
2024-05-09T02:46:59.549Z,6.21
2024-05-09T02:49:07.088Z,6.20
2024-05-09T02:51:14.776Z,6.20
2024-05-09T02:53:22.261Z,6.21
2024-05-09T02:55:29.724Z,6.21
2024-05-09T02:57:37.242Z,6.27
2024-05-09T02:59:45.458Z,6.32
2024-05-09T03:01:53.138Z,6.34
2024-05-09T03:04:01.003Z,6.35
2024-05-09T03:06:08.975Z,6.35
2024-05-09T03:08:16.711Z,6.36
2024-05-09T03:10:28.547Z,6.36
2024-05-09T03:12:39.024Z,6.37
2024-05-09T03:14:46.936Z,6.37
2024-05-09T03:16:54.532Z,6.36
2024-05-09T03:19:01.927Z,6.36
2024-05-09T03:21:10.493Z,6.37
2024-05-09T03:23:18.511Z,6.42
2024-05-09T03:25:26.291Z,6.45
2024-05-09T03:27:33.751Z,6.49
2024-05-09T03:29:41.208Z,6.48
2024-05-09T03:31:48.669Z,6.47
2024-05-09T03:33:56.447Z,6.49
2024-05-09T03:36:09.760Z,6.50
2024-05-09T03:38:18.494Z,6.50
2024-05-09T03:40:29.053Z,6.51
2024-05-09T03:42:41.529Z,6.52
2024-05-09T03:44:49.506Z,6.54
2024-05-09T03:46:56.973Z,6.55
2024-05-09T03:49:04.504Z,6.62
2024-05-09T03:51:12.460Z,6.70
2024-05-09T03:53:20.150Z,6.76
2024-05-09T03:55:28.338Z,6.75
2024-05-09T03:57:35.821Z,6.76
2024-05-09T03:59:43.331Z,6.80
2024-05-09T04:01:51.087Z,6.84
2024-05-09T04:03:58.864Z,6.87
2024-05-09T04:06:06.690Z,6.89
2024-05-09T04:08:15.262Z,6.91
2024-05-09T04:10:30.507Z,6.91
2024-05-09T04:12:41.112Z,6.92
2024-05-09T04:14:48.474Z,7.02
2024-05-09T04:16:56.053Z,7.12
2024-05-09T04:19:03.764Z,7.24
2024-05-09T04:21:11.315Z,7.32
2024-05-09T04:23:18.943Z,7.38
2024-05-09T04:25:26.440Z,7.45
2024-05-09T04:27:34.001Z,7.54
2024-05-09T04:29:41.893Z,7.65
2024-05-09T04:31:49.430Z,7.75
2024-05-09T04:33:57.113Z,7.86
2024-05-09T04:36:05.031Z,7.96
2024-05-09T04:38:12.730Z,8.06
2024-05-09T04:40:28.128Z,8.22
2024-05-09T04:42:42.312Z,8.39
2024-05-09T04:44:49.589Z,8.50
2024-05-09T04:46:56.993Z,8.60
2024-05-09T04:49:04.855Z,8.72
2024-05-09T04:51:12.353Z,8.81
2024-05-09T04:53:19.920Z,8.89
2024-05-09T04:55:27.731Z,9.01
2024-05-09T04:57:36.472Z,9.11
2024-05-09T04:59:44.078Z,9.18
2024-05-09T05:01:51.614Z,9.29
2024-05-09T05:03:59.593Z,9.40
2024-05-09T05:06:07.695Z,9.51
2024-05-09T05:08:16.451Z,9.60
2024-05-09T05:10:33.060Z,9.68
2024-05-09T05:13:01.045Z,9.78
2024-05-09T05:15:10.437Z,9.88
2024-05-09T05:17:18.154Z,10.01
2024-05-09T05:19:26.345Z,10.15
2024-05-09T05:21:33.926Z,10.33
2024-05-09T05:23:41.691Z,10.53
2024-05-09T05:25:50.462Z,10.73
2024-05-09T05:27:57.892Z,10.93
2024-05-09T05:30:07.531Z,11.14
2024-05-09T05:32:16.967Z,11.39
2024-05-09T05:34:24.482Z,11.66
2024-05-09T05:36:31.849Z,11.94
2024-05-09T05:38:39.378Z,12.44
2024-05-09T05:40:46.907Z,13.28
2024-05-09T05:42:54.490Z,14.23
2024-05-09T05:45:02.146Z,15.13
2024-05-09T05:47:09.806Z,16.03
2024-05-09T05:49:17.726Z,16.92
2024-05-09T05:51:25.382Z,17.73
2024-05-09T05:53:33.280Z,18.44
2024-05-09T05:55:41.581Z,19.17
2024-05-09T05:57:49.066Z,19.83
2024-05-09T05:59:56.477Z,20.59
2024-05-09T06:02:04.299Z,21.40
2024-05-09T06:04:12.194Z,22.13
2024-05-09T06:06:19.865Z,22.81
2024-05-09T06:08:30.287Z,23.45
2024-05-09T06:10:40.403Z,24.07
2024-05-09T06:12:48.946Z,24.67
2024-05-09T06:14:56.499Z,25.07
2024-05-09T06:17:04.409Z,25.34
2024-05-09T06:19:11.825Z,25.57
2024-05-09T06:21:20.063Z,25.85
2024-05-09T06:23:27.589Z,26.04
2024-05-09T06:25:35.586Z,26.03
2024-05-09T06:27:43.323Z,26.15
2024-05-09T06:29:50.689Z,26.30
2024-05-09T06:32:00.267Z,26.36
2024-05-09T06:34:07.965Z,26.39
2024-05-09T06:36:15.813Z,26.50
2024-05-09T06:38:23.410Z,26.73
2024-05-09T06:40:37.305Z,26.86
2024-05-09T06:42:46.863Z,26.67
2024-05-09T06:44:54.560Z,26.41
2024-05-09T06:47:02.362Z,26.14
2024-05-09T06:49:11.911Z,26.33
2024-05-09T06:51:20.164Z,26.64
2024-05-09T06:53:27.987Z,27.00
2024-05-09T06:55:35.830Z,27.41
2024-05-09T06:57:43.309Z,27.83
2024-05-09T06:59:50.749Z,28.16
2024-05-09T07:01:58.317Z,28.41
2024-05-09T07:04:06.025Z,28.50
2024-05-09T07:06:13.807Z,28.50
2024-05-09T07:08:21.403Z,28.49
2024-05-09T07:10:34.470Z,28.56
2024-05-09T07:12:43.670Z,28.68
2024-05-09T07:14:51.331Z,28.79
2024-05-09T07:16:59.010Z,28.86
2024-05-09T07:19:07.039Z,28.36
2024-05-09T07:21:14.817Z,28.34
2024-05-09T07:23:22.529Z,28.46
2024-05-09T07:25:30.284Z,28.51
2024-05-09T07:27:38.193Z,28.53
2024-05-09T07:29:45.744Z,28.53
2024-05-09T07:31:53.570Z,28.51
2024-05-09T07:34:01.316Z,28.57
2024-05-09T07:36:09.433Z,28.41
2024-05-09T07:38:17.144Z,28.23
2024-05-09T07:40:32.986Z,27.88
2024-05-09T07:42:44.160Z,27.78
2024-05-09T07:44:51.560Z,27.88
2024-05-09T07:50:53.478Z,27.88
2024-05-09T07:53:14.381Z,27.96
2024-05-09T07:54:08.416Z,28.10
2024-05-09T07:56:18.333Z,28.23
2024-05-09T07:58:27.700Z,28.33
2024-05-09T08:00:35.753Z,27.98
2024-05-09T08:02:43.332Z,27.46
2024-05-09T08:04:51.376Z,27.19
2024-05-09T08:06:58.835Z,27.12
2024-05-09T08:09:10.848Z,26.91
2024-05-09T08:11:21.256Z,26.76
2024-05-09T08:13:29.052Z,26.57
2024-05-09T08:15:37.663Z,26.20
2024-05-09T08:17:45.572Z,25.73
2024-05-09T08:19:53.282Z,25.41
2024-05-09T08:22:06.916Z,25.04
2024-05-09T08:24:14.837Z,24.60
2024-05-09T08:26:22.347Z,24.19
2024-05-09T08:28:30.140Z,23.49
2024-05-09T08:30:38.482Z,22.69
2024-05-09T08:32:47.942Z,22.32
2024-05-09T08:34:56.862Z,22.34
2024-05-09T08:37:12.920Z,22.23
2024-05-09T08:39:23.736Z,22.08
2024-05-09T08:41:33.365Z,22.04
2024-05-09T08:43:42.153Z,22.44
2024-05-09T08:45:52.099Z,23.24
2024-05-09T08:48:03.798Z,24.06
2024-05-09T08:50:24.325Z,24.75
2024-05-09T08:52:39.931Z,25.57
2024-05-09T08:54:47.414Z,26.20
2024-05-09T08:56:55.173Z,26.65
2024-05-09T08:59:04.763Z,26.76
2024-05-09T09:01:13.067Z,26.64
2024-05-09T09:03:24.272Z,26.80
2024-05-09T09:05:34.742Z,27.04
2024-05-09T09:07:42.678Z,27.39
2024-05-09T09:09:51.369Z,27.65
2024-05-09T09:11:59.072Z,27.99
2024-05-09T09:14:07.305Z,28.35
2024-05-09T09:16:16.106Z,28.64
2024-05-09T09:18:24.547Z,28.81
2024-05-09T09:20:36.715Z,28.99
2024-05-09T09:22:44.715Z,28.97
2024-05-09T09:24:52.481Z,29.01
2024-05-09T09:27:00.665Z,28.95
2024-05-09T09:29:08.307Z,29.10
2024-05-09T09:31:19.374Z,29.21
2024-05-09T09:33:31.119Z,29.06
2024-05-09T09:35:40.025Z,28.81
2024-05-09T09:37:49.554Z,28.60
2024-05-09T09:39:58.938Z,28.80
2024-05-09T09:42:07.413Z,29.03
2024-05-09T09:44:15.132Z,29.27
2024-05-09T09:46:22.950Z,29.50
2024-05-09T09:48:33.148Z,29.49
2024-05-09T09:50:42.522Z,29.45
2024-05-09T09:52:51.359Z,29.43
2024-05-09T09:55:00.226Z,29.40
2024-05-09T09:57:09.418Z,29.53
2024-05-09T09:59:17.468Z,29.58
2024-05-09T10:01:25.172Z,29.73
2024-05-09T10:03:33.953Z,29.85
2024-05-09T10:05:45.231Z,29.81
2024-05-09T10:07:55.885Z,29.84
2024-05-09T10:12:15.895Z,30.00
2024-05-09T10:14:24.241Z,30.02
2024-05-09T10:16:34.824Z,29.71
2024-05-09T10:18:42.992Z,29.69
2024-05-09T10:20:51.772Z,29.72
2024-05-09T10:22:59.251Z,29.51
2024-05-09T10:25:10.434Z,29.16
2024-05-09T10:27:18.142Z,28.65
2024-05-09T10:29:26.267Z,28.31
2024-05-09T10:31:33.792Z,28.21
2024-05-09T10:33:46.775Z,28.42
2024-05-09T10:35:54.853Z,28.00
2024-05-09T10:38:09.679Z,27.77
2024-05-09T10:40:26.407Z,27.96
2024-05-09T10:42:41.809Z,28.09
2024-05-09T10:44:49.448Z,27.94
2024-05-09T10:46:57.469Z,27.73
2024-05-09T10:49:07.862Z,27.58
2024-05-09T10:51:16.152Z,27.83
2024-05-09T10:53:23.513Z,28.06
2024-05-09T10:55:31.201Z,28.08
2024-05-09T10:57:43.179Z,28.17
2024-05-09T10:59:51.494Z,28.28
2024-05-09T11:01:59.518Z,28.40
2024-05-09T11:04:09.283Z,28.55
2024-05-09T11:06:19.058Z,28.46
2024-05-09T11:08:27.322Z,28.28
2024-05-09T11:10:37.234Z,28.19
2024-05-09T11:12:47.320Z,28.17
2024-05-09T11:14:57.557Z,28.13
2024-05-09T11:17:06.797Z,27.99
2024-05-09T11:19:15.657Z,27.85
2024-05-09T11:21:24.047Z,27.78
2024-05-09T11:23:31.547Z,27.65
2024-05-09T11:25:39.621Z,27.37
2024-05-09T11:27:47.223Z,27.29
2024-05-09T11:29:54.853Z,27.32
2024-05-09T11:32:06.967Z,27.47
2024-05-09T11:34:14.644Z,27.56
2024-05-09T11:36:22.206Z,27.60
2024-05-09T11:38:29.752Z,27.68
2024-05-09T11:40:38.119Z,27.73
2024-05-09T11:42:48.784Z,27.58
2024-05-09T11:44:57.234Z,27.21
2024-05-09T11:47:05.616Z,26.71
2024-05-09T11:49:13.376Z,25.96
2024-05-09T11:51:21.029Z,25.31
2024-05-09T11:53:28.568Z,25.14
2024-05-09T11:55:36.329Z,25.32
2024-05-09T11:57:44.192Z,25.63
2024-05-09T11:59:51.969Z,25.55
2024-05-09T12:01:59.755Z,25.70
2024-05-09T12:04:08.135Z,25.88
2024-05-09T12:06:16.127Z,26.03
2024-05-09T12:08:24.061Z,25.94
2024-05-09T12:10:34.873Z,26.12
2024-05-09T12:12:44.268Z,26.29
2024-05-09T12:14:51.858Z,26.22
2024-05-09T12:17:00.995Z,26.05
2024-05-09T12:19:08.861Z,25.78
2024-05-09T12:21:17.535Z,25.51
2024-05-09T12:23:25.457Z,25.43
2024-05-09T12:25:33.090Z,25.51
2024-05-09T12:27:40.763Z,25.56
2024-05-09T12:29:48.540Z,25.58
2024-05-09T12:31:56.120Z,25.60
2024-05-09T12:34:04.042Z,25.86
2024-05-09T12:36:11.770Z,26.05
2024-05-09T12:38:20.172Z,26.03
2024-05-09T12:40:35.476Z,26.07
2024-05-09T12:42:45.575Z,26.11
2024-05-09T12:44:53.142Z,25.98
2024-05-09T12:47:01.264Z,25.62
2024-05-09T12:49:10.398Z,25.02
2024-05-09T12:51:18.248Z,24.51
2024-05-09T12:53:25.725Z,24.25
2024-05-09T12:55:41.413Z,24.06
2024-05-09T12:57:56.573Z,23.70
2024-05-09T13:00:05.761Z,23.63
2024-05-09T13:02:15.728Z,23.59
2024-05-09T13:04:23.462Z,23.46
2024-05-09T13:06:34.120Z,23.44
2024-05-09T13:08:41.786Z,23.45
2024-05-09T13:10:50.047Z,23.35
2024-05-09T13:12:57.872Z,23.32
2024-05-09T13:15:06.687Z,23.31
2024-05-09T13:17:14.417Z,23.18
2024-05-09T13:19:21.833Z,22.91
2024-05-09T13:21:29.498Z,22.60
2024-05-09T13:23:37.829Z,22.31
2024-05-09T13:25:46.008Z,22.12
2024-05-09T13:27:53.606Z,21.92
2024-05-09T13:30:01.110Z,21.78
2024-05-09T13:32:09.360Z,21.69
2024-05-09T13:34:17.495Z,21.71
2024-05-09T13:36:25.247Z,21.79
2024-05-09T13:38:32.799Z,21.85
2024-05-09T13:40:41.757Z,21.90
2024-05-09T13:42:49.338Z,21.97
2024-05-09T13:44:57.046Z,21.98
2024-05-09T13:47:04.940Z,21.92
2024-05-09T13:49:16.435Z,21.72
2024-05-09T13:51:24.080Z,21.56
2024-05-09T13:53:31.957Z,21.42
2024-05-09T13:55:40.410Z,21.23
2024-05-09T13:57:48.414Z,21.02
2024-05-09T13:59:56.216Z,20.83
2024-05-09T14:02:03.832Z,20.82
2024-05-09T14:04:11.648Z,20.83
2024-05-09T14:06:19.545Z,20.74
2024-05-09T14:08:27.166Z,20.60
2024-05-09T14:10:35.322Z,20.61
2024-05-09T14:12:43.294Z,20.56
2024-05-09T14:14:50.616Z,20.46
2024-05-09T14:16:58.272Z,20.60
2024-05-09T14:19:06.198Z,20.67
2024-05-09T14:21:13.583Z,20.65
2024-05-09T14:23:20.967Z,20.48
2024-05-09T14:25:31.576Z,20.36
2024-05-09T14:27:39.146Z,20.30
2024-05-09T14:29:46.602Z,20.20
2024-05-09T14:31:54.071Z,20.07
2024-05-09T14:34:02.087Z,19.96
2024-05-09T14:36:10.577Z,19.85
2024-05-09T14:38:18.088Z,19.71
2024-05-09T14:40:36.344Z,19.71
2024-05-09T14:42:48.818Z,19.64
2024-05-09T14:44:56.744Z,19.55
2024-05-09T14:47:05.015Z,19.51
2024-05-09T14:49:12.996Z,19.48
2024-05-09T14:51:20.690Z,19.44
2024-05-09T14:53:28.453Z,19.38
2024-05-09T14:55:37.838Z,19.36
2024-05-09T14:57:45.900Z,19.42
2024-05-09T14:59:53.839Z,19.48
2024-05-09T15:02:01.579Z,19.40
2024-05-09T15:04:09.399Z,19.25
2024-05-09T15:06:17.772Z,19.11
2024-05-09T15:08:25.630Z,18.95
2024-05-09T15:10:35.836Z,18.83
2024-05-09T15:12:43.153Z,18.79
2024-05-09T15:14:52.018Z,18.71
2024-05-09T15:16:59.939Z,18.63
2024-05-09T15:19:07.702Z,18.58
2024-05-09T15:21:15.378Z,18.55
2024-05-09T15:23:22.759Z,18.59
2024-05-09T15:25:30.566Z,18.59
2024-05-09T15:27:38.446Z,18.51
2024-05-09T15:29:45.827Z,18.40
2024-05-09T15:31:53.409Z,18.26
2024-05-09T15:34:01.096Z,18.18
2024-05-09T15:36:09.841Z,18.17
2024-05-09T15:38:18.529Z,18.19
2024-05-09T15:40:35.718Z,18.19
2024-05-09T15:42:47.360Z,18.14
2024-05-09T15:44:55.066Z,18.17
2024-05-09T15:47:02.559Z,18.22
2024-05-09T15:49:11.080Z,18.31
2024-05-09T15:51:18.734Z,18.29
2024-05-09T15:53:26.421Z,18.13
2024-05-09T15:55:34.828Z,17.96
2024-05-09T15:57:42.745Z,17.89
2024-05-09T15:59:50.964Z,17.82
2024-05-09T16:01:58.409Z,17.77
2024-05-09T16:04:06.676Z,17.72
2024-05-09T16:06:14.523Z,17.70
2024-05-09T16:08:22.120Z,17.73
2024-05-09T16:10:32.935Z,17.73
2024-05-09T16:12:42.140Z,17.76
2024-05-09T16:14:50.597Z,17.71
2024-05-09T16:16:58.182Z,17.64
2024-05-09T16:19:05.933Z,17.57
2024-05-09T16:21:13.728Z,17.58
2024-05-09T16:23:21.294Z,17.53
2024-05-09T16:25:28.802Z,17.52
2024-05-09T16:27:36.588Z,17.57
2024-05-09T16:29:44.686Z,17.60
2024-05-09T16:31:52.082Z,17.64
2024-05-09T16:33:59.806Z,17.64
2024-05-09T16:36:08.954Z,17.45
2024-05-09T16:38:16.663Z,17.29
2024-05-09T16:40:33.079Z,17.21
2024-05-09T16:42:45.706Z,17.19
2024-05-09T16:44:53.049Z,17.15
2024-05-09T16:47:00.487Z,17.10
2024-05-09T16:49:09.101Z,17.09
2024-05-09T16:51:16.716Z,17.04
2024-05-09T16:53:25.699Z,16.99
2024-05-09T16:55:33.493Z,16.88
2024-05-09T16:57:41.882Z,16.79
2024-05-09T16:59:49.813Z,16.76
2024-05-09T17:01:57.488Z,16.70
2024-05-09T17:04:05.207Z,16.67
2024-05-09T17:06:13.417Z,16.63
2024-05-09T17:08:20.950Z,16.53
2024-05-09T17:10:33.033Z,16.49
2024-05-09T17:12:42.697Z,16.44
2024-05-09T17:14:50.317Z,16.40
2024-05-09T17:16:58.011Z,16.39
2024-05-09T17:19:06.424Z,16.35
2024-05-09T17:21:13.940Z,16.31
2024-05-09T17:23:21.422Z,16.31
2024-05-09T17:25:29.481Z,16.32
2024-05-09T17:27:37.531Z,16.31
2024-05-09T17:29:45.042Z,16.21
2024-05-09T17:31:52.358Z,16.10
2024-05-09T17:34:00.087Z,16.09
2024-05-09T17:36:08.616Z,16.09
2024-05-09T17:38:16.473Z,16.06
2024-05-09T17:40:31.375Z,16.03
2024-05-09T17:42:43.065Z,16.03
2024-05-09T17:44:50.483Z,16.00
2024-05-09T17:47:06.595Z,16.01
2024-05-09T17:49:14.062Z,15.96
2024-05-09T17:51:21.494Z,15.92
2024-05-09T17:53:28.907Z,15.89
2024-05-09T17:55:36.986Z,15.85
2024-05-09T17:57:44.520Z,15.82
2024-05-09T17:59:53.905Z,15.78
2024-05-09T18:02:01.851Z,15.73
2024-05-09T18:04:09.715Z,15.65
2024-05-09T18:06:17.440Z,15.56
2024-05-09T18:08:25.169Z,15.50
2024-05-09T18:10:37.031Z,15.42
2024-05-09T18:12:46.990Z,15.34
2024-05-09T18:14:54.696Z,15.29
2024-05-09T18:17:02.980Z,15.21
2024-05-09T18:19:10.431Z,15.13
2024-05-09T18:21:18.190Z,15.07
2024-05-09T18:23:25.723Z,15.00
2024-05-09T18:25:33.214Z,14.92
2024-05-09T18:27:40.953Z,14.83
2024-05-09T18:29:48.614Z,14.76
2024-05-09T18:31:56.093Z,14.68
2024-05-09T18:34:03.913Z,14.56
2024-05-09T18:36:12.380Z,14.47
2024-05-09T18:38:25.203Z,14.34
2024-05-09T18:40:36.156Z,14.29
2024-05-09T18:42:45.214Z,14.21
2024-05-09T18:44:53.079Z,14.12
2024-05-09T18:47:01.176Z,14.11
2024-05-09T18:49:09.245Z,14.07
2024-05-09T18:51:16.910Z,14.03
2024-05-09T18:53:24.563Z,13.97
2024-05-09T18:55:32.074Z,13.89
2024-05-09T18:57:39.673Z,13.83
2024-05-09T18:59:47.027Z,13.78
2024-05-09T19:01:54.558Z,13.71
2024-05-09T19:04:02.103Z,13.64
2024-05-09T19:06:09.811Z,13.55
2024-05-09T19:08:17.424Z,13.47
2024-05-09T19:10:28.878Z,13.40
2024-05-09T19:12:41.017Z,13.34
2024-05-09T19:14:48.384Z,13.28
2024-05-09T19:16:55.852Z,13.22
2024-05-09T19:19:03.970Z,13.22
2024-05-09T19:21:14.160Z,13.20
2024-05-09T19:23:22.338Z,13.17
2024-05-09T19:25:29.904Z,13.12
2024-05-09T19:27:37.838Z,13.09
2024-05-09T19:29:45.467Z,13.07
2024-05-09T19:31:53.068Z,13.02
2024-05-09T19:34:00.728Z,12.97
2024-05-09T19:36:10.368Z,12.91
2024-05-09T19:38:18.019Z,12.85
2024-05-09T19:40:31.131Z,12.77
2024-05-09T19:42:40.732Z,12.69
2024-05-09T19:44:48.246Z,12.62
2024-05-09T19:46:55.715Z,12.56
2024-05-09T19:49:05.510Z,12.54
2024-05-09T19:51:13.523Z,12.52
2024-05-09T19:53:20.895Z,12.48
2024-05-09T19:55:28.305Z,12.43
2024-05-09T19:57:35.680Z,12.36
2024-05-09T19:59:43.873Z,12.32
2024-05-09T20:01:52.116Z,12.28
2024-05-09T20:03:59.961Z,12.22
2024-05-09T20:06:08.293Z,12.17
2024-05-09T20:08:16.059Z,12.10
2024-05-09T20:10:26.738Z,12.04
2024-05-09T20:12:39.448Z,12.00
2024-05-09T20:14:47.032Z,12.01
2024-05-09T20:16:54.507Z,11.99
2024-05-09T20:19:02.189Z,11.97
2024-05-09T20:21:09.809Z,11.93
2024-05-09T20:23:17.471Z,11.90
2024-05-09T20:25:25.048Z,11.86
2024-05-09T20:27:32.632Z,11.81
2024-05-09T20:29:40.614Z,11.77
2024-05-09T20:31:48.146Z,11.71
2024-05-09T20:33:55.851Z,11.65
2024-05-09T20:36:03.537Z,11.59
2024-05-09T20:38:10.991Z,11.58
2024-05-09T20:40:25.674Z,11.56
2024-05-09T20:42:39.110Z,11.52
2024-05-09T20:44:46.686Z,11.47
2024-05-09T20:46:54.142Z,11.44
2024-05-09T20:49:01.838Z,11.41
2024-05-09T20:51:10.450Z,11.38
2024-05-09T20:53:17.910Z,11.34
2024-05-09T20:55:25.518Z,11.26
2024-05-09T20:57:32.862Z,11.21
2024-05-09T20:59:41.978Z,11.14
2024-05-09T21:01:50.070Z,11.14
2024-05-09T21:03:57.788Z,11.11
2024-05-09T21:06:05.810Z,11.08
2024-05-09T21:08:13.224Z,11.04
2024-05-09T21:10:22.821Z,11.03
2024-05-09T21:12:30.795Z,10.99
2024-05-09T21:14:38.511Z,10.95
2024-05-09T21:16:45.947Z,10.89
2024-05-09T21:18:53.583Z,10.84
2024-05-09T21:21:01.067Z,10.78
2024-05-09T21:23:08.900Z,10.79
2024-05-09T21:25:16.835Z,10.78
2024-05-09T21:27:25.427Z,10.74
2024-05-09T21:29:33.005Z,10.69
2024-05-09T21:31:40.748Z,10.64
2024-05-09T21:33:48.230Z,10.61
2024-05-09T21:35:57.015Z,10.56
2024-05-09T21:38:05.525Z,10.52
2024-05-09T21:40:17.193Z,10.47
2024-05-09T21:42:32.102Z,10.47
2024-05-09T21:44:39.892Z,10.45
2024-05-09T21:46:47.275Z,10.44
2024-05-09T21:48:55.948Z,10.42
2024-05-09T21:51:03.645Z,10.39
2024-05-09T21:53:11.738Z,10.35
2024-05-09T21:55:19.910Z,10.32
2024-05-09T21:57:27.436Z,10.29
2024-05-09T21:59:34.888Z,10.24
2024-05-09T22:01:42.313Z,10.20
2024-05-09T22:03:50.325Z,10.21
2024-05-09T22:05:57.913Z,10.20
2024-05-09T22:08:06.176Z,10.18
2024-05-09T22:10:22.691Z,10.16
2024-05-09T22:12:34.374Z,10.12
2024-05-09T22:14:42.202Z,10.10
2024-05-09T22:16:49.623Z,10.09
2024-05-09T22:18:57.249Z,10.07
2024-05-09T22:21:05.217Z,10.07
2024-05-09T22:23:13.023Z,10.11
2024-05-09T22:25:20.755Z,10.15
2024-05-09T22:27:28.161Z,10.16
2024-05-09T22:29:35.750Z,10.17
2024-05-09T22:31:43.162Z,10.19
2024-05-09T22:33:50.743Z,10.20
2024-05-09T22:35:58.365Z,10.22
2024-05-09T22:38:06.666Z,10.21
2024-05-09T22:40:23.863Z,10.23
2024-05-09T22:42:36.718Z,10.28
2024-05-09T22:44:44.164Z,10.30
2024-05-09T22:46:51.686Z,10.32
2024-05-09T22:48:59.485Z,10.31
2024-05-09T22:51:07.544Z,10.31
2024-05-09T22:53:15.109Z,10.31
2024-05-09T22:55:22.511Z,10.31
2024-05-09T22:57:29.934Z,10.31
2024-05-09T22:59:37.363Z,10.31
2024-05-09T23:01:44.991Z,10.32
2024-05-09T23:03:52.703Z,10.38
2024-05-09T23:06:00.876Z,10.43
2024-05-09T23:08:09.489Z,10.45
2024-05-09T23:10:24.955Z,10.47
2024-05-09T23:12:40.538Z,10.49
2024-05-09T23:14:48.191Z,10.51
2024-05-09T23:16:55.741Z,10.51
2024-05-09T23:19:03.566Z,10.54
2024-05-09T23:21:11.125Z,10.55
2024-05-09T23:23:18.864Z,10.56
2024-05-09T23:25:26.595Z,10.59
2024-05-09T23:27:34.126Z,10.63
2024-05-09T23:29:41.576Z,10.65
2024-05-09T23:31:49.085Z,10.65
2024-05-09T23:33:56.690Z,10.66
2024-05-09T23:36:04.699Z,10.68
2024-05-09T23:38:12.333Z,10.69
2024-05-09T23:40:23.238Z,10.70
2024-05-09T23:42:31.724Z,10.70
2024-05-09T23:44:39.738Z,10.71
2024-05-09T23:46:47.228Z,10.71
2024-05-09T23:48:54.809Z,10.74
2024-05-09T23:51:02.328Z,10.75
2024-05-09T23:53:10.774Z,10.77
2024-05-09T23:55:19.344Z,10.84
2024-05-09T23:57:27.290Z,10.88
2024-05-09T23:59:35.077Z,10.92
